sensor_id;sensor_type;location;lat;lon;timestamp;P1;durP1;ratioP1;P2;durP2;ratioP2
60292;SDS011;52402;52.670;6.750;2022-10-26T00:01:26;17.55;;;12.90;;
60292;SDS011;52402;52.670;6.750;2022-10-26T00:03:53;20.33;;;16.00;;
60292;SDS011;52402;52.670;6.750;2022-10-26T00:06:20;14.70;;;13.20;;
60292;SDS011;52402;52.670;6.750;2022-10-26T00:08:51;17.00;;;14.32;;
60292;SDS011;52402;52.670;6.750;2022-10-26T00:11:18;17.77;;;14.77;;
60292;SDS011;52402;52.670;6.750;2022-10-26T00:13:45;16.05;;;13.35;;
60292;SDS011;52402;52.670;6.750;2022-10-26T00:16:15;17.98;;;14.10;;
60292;SDS011;52402;52.670;6.750;2022-10-26T00:18:43;16.05;;;14.35;;
60292;SDS011;52402;52.670;6.750;2022-10-26T00:21:09;18.85;;;15.82;;
60292;SDS011;52402;52.670;6.750;2022-10-26T00:23:35;18.73;;;16.10;;
60292;SDS011;52402;52.670;6.750;2022-10-26T00:26:01;29.58;;;24.75;;
60292;SDS011;52402;52.670;6.750;2022-10-26T00:28:27;22.67;;;20.17;;
60292;SDS011;52402;52.670;6.750;2022-10-26T00:30:53;22.83;;;20.45;;
60292;SDS011;52402;52.670;6.750;2022-10-26T00:33:19;21.17;;;18.85;;
60292;SDS011;52402;52.670;6.750;2022-10-26T00:35:47;30.00;;;25.02;;
60292;SDS011;52402;52.670;6.750;2022-10-26T00:38:18;19.50;;;17.60;;
60292;SDS011;52402;52.670;6.750;2022-10-26T00:40:43;21.40;;;19.27;;
60292;SDS011;52402;52.670;6.750;2022-10-26T00:43:13;17.92;;;16.13;;
60292;SDS011;52402;52.670;6.750;2022-10-26T00:45:51;19.65;;;17.65;;
60292;SDS011;52402;52.670;6.750;2022-10-26T00:50:48;19.03;;;17.17;;
60292;SDS011;52402;52.670;6.750;2022-10-26T00:53:17;18.60;;;16.58;;
60292;SDS011;52402;52.670;6.750;2022-10-26T00:55:44;19.58;;;17.48;;
60292;SDS011;52402;52.670;6.750;2022-10-26T00:58:12;20.27;;;17.63;;
60292;SDS011;52402;52.670;6.750;2022-10-26T01:00:40;18.38;;;16.40;;
60292;SDS011;52402;52.670;6.750;2022-10-26T01:03:07;35.00;;;28.00;;
60292;SDS011;52402;52.670;6.750;2022-10-26T01:05:35;21.08;;;18.88;;
60292;SDS011;52402;52.670;6.750;2022-10-26T01:08:02;19.92;;;17.83;;
60292;SDS011;52402;52.670;6.750;2022-10-26T01:10:28;19.27;;;17.10;;
60292;SDS011;52402;52.670;6.750;2022-10-26T01:12:54;24.92;;;22.27;;
60292;SDS011;52402;52.670;6.750;2022-10-26T01:15:23;17.98;;;16.27;;
60292;SDS011;52402;52.670;6.750;2022-10-26T01:18:00;17.95;;;16.17;;
60292;SDS011;52402;52.670;6.750;2022-10-26T01:23:50;24.00;;;21.45;;
60292;SDS011;52402;52.670;6.750;2022-10-26T01:32:05;19.08;;;17.08;;
60292;SDS011;52402;52.670;6.750;2022-10-26T01:34:41;18.10;;;16.20;;
60292;SDS011;52402;52.670;6.750;2022-10-26T01:37:18;35.15;;;27.02;;
60292;SDS011;52402;52.670;6.750;2022-10-26T01:39:50;26.15;;;23.35;;
60292;SDS011;52402;52.670;6.750;2022-10-26T01:42:18;24.00;;;21.70;;
60292;SDS011;52402;52.670;6.750;2022-10-26T01:44:48;48.67;;;34.80;;
60292;SDS011;52402;52.670;6.750;2022-10-26T01:47:20;21.65;;;19.65;;
60292;SDS011;52402;52.670;6.750;2022-10-26T01:49:52;27.67;;;24.73;;
60292;SDS011;52402;52.670;6.750;2022-10-26T01:52:19;23.63;;;21.23;;
60292;SDS011;52402;52.670;6.750;2022-10-26T01:54:45;25.00;;;22.13;;
60292;SDS011;52402;52.670;6.750;2022-10-26T01:57:12;21.30;;;19.08;;
60292;SDS011;52402;52.670;6.750;2022-10-26T02:02:36;24.50;;;21.08;;
60292;SDS011;52402;52.670;6.750;2022-10-26T02:05:28;23.83;;;21.27;;
60292;SDS011;52402;52.670;6.750;2022-10-26T02:13:15;24.27;;;21.67;;
60292;SDS011;52402;52.670;6.750;2022-10-26T02:16:03;24.83;;;22.25;;
60292;SDS011;52402;52.670;6.750;2022-10-26T02:21:16;27.98;;;22.60;;
60292;SDS011;52402;52.670;6.750;2022-10-26T02:23:46;22.17;;;19.83;;
60292;SDS011;52402;52.670;6.750;2022-10-26T02:26:14;24.88;;;22.20;;
60292;SDS011;52402;52.670;6.750;2022-10-26T02:28:44;27.65;;;24.30;;
60292;SDS011;52402;52.670;6.750;2022-10-26T02:31:15;23.60;;;21.17;;
60292;SDS011;52402;52.670;6.750;2022-10-26T02:33:44;25.58;;;22.95;;
60292;SDS011;52402;52.670;6.750;2022-10-26T02:36:14;42.30;;;32.10;;
60292;SDS011;52402;52.670;6.750;2022-10-26T02:38:44;34.13;;;29.67;;
60292;SDS011;52402;52.670;6.750;2022-10-26T02:41:12;38.15;;;30.85;;
60292;SDS011;52402;52.670;6.750;2022-10-26T02:43:43;25.95;;;23.27;;
60292;SDS011;52402;52.670;6.750;2022-10-26T02:46:15;32.90;;;27.48;;
60292;SDS011;52402;52.670;6.750;2022-10-26T02:48:44;27.10;;;24.38;;
60292;SDS011;52402;52.670;6.750;2022-10-26T02:51:15;25.80;;;23.02;;
60292;SDS011;52402;52.670;6.750;2022-10-26T02:53:45;28.65;;;25.75;;
60292;SDS011;52402;52.670;6.750;2022-10-26T02:56:35;27.45;;;24.77;;
60292;SDS011;52402;52.670;6.750;2022-10-26T02:59:21;28.35;;;25.40;;
60292;SDS011;52402;52.670;6.750;2022-10-26T03:01:51;28.73;;;25.83;;
60292;SDS011;52402;52.670;6.750;2022-10-26T03:04:17;37.35;;;32.05;;
60292;SDS011;52402;52.670;6.750;2022-10-26T03:06:53;35.17;;;30.67;;
60292;SDS011;52402;52.670;6.750;2022-10-26T03:09:19;49.53;;;36.90;;
60292;SDS011;52402;52.670;6.750;2022-10-26T03:11:45;30.40;;;27.23;;
60292;SDS011;52402;52.670;6.750;2022-10-26T03:14:10;45.30;;;33.47;;
60292;SDS011;52402;52.670;6.750;2022-10-26T03:16:36;44.10;;;35.80;;
60292;SDS011;52402;52.670;6.750;2022-10-26T03:19:01;30.38;;;26.90;;
60292;SDS011;52402;52.670;6.750;2022-10-26T03:21:27;64.35;;;41.65;;
60292;SDS011;52402;52.670;6.750;2022-10-26T03:23:53;30.52;;;27.42;;
60292;SDS011;52402;52.670;6.750;2022-10-26T03:26:19;36.25;;;31.42;;
60292;SDS011;52402;52.670;6.750;2022-10-26T03:28:44;33.55;;;29.75;;
60292;SDS011;52402;52.670;6.750;2022-10-26T03:31:10;30.42;;;26.88;;
60292;SDS011;52402;52.670;6.750;2022-10-26T03:33:36;31.30;;;27.83;;
60292;SDS011;52402;52.670;6.750;2022-10-26T03:36:02;30.65;;;27.45;;
60292;SDS011;52402;52.670;6.750;2022-10-26T03:38:27;30.08;;;27.05;;
60292;SDS011;52402;52.670;6.750;2022-10-26T03:40:53;29.45;;;26.48;;
60292;SDS011;52402;52.670;6.750;2022-10-26T03:43:19;38.88;;;33.17;;
60292;SDS011;52402;52.670;6.750;2022-10-26T03:45:44;68.20;;;43.72;;
60292;SDS011;52402;52.670;6.750;2022-10-26T03:48:10;43.78;;;34.13;;
60292;SDS011;52402;52.670;6.750;2022-10-26T03:50:36;28.85;;;25.95;;
60292;SDS011;52402;52.670;6.750;2022-10-26T03:53:01;47.30;;;35.30;;
60292;SDS011;52402;52.670;6.750;2022-10-26T03:55:27;30.45;;;27.10;;
60292;SDS011;52402;52.670;6.750;2022-10-26T03:57:53;30.00;;;26.35;;
60292;SDS011;52402;52.670;6.750;2022-10-26T04:00:18;28.83;;;25.83;;
60292;SDS011;52402;52.670;6.750;2022-10-26T04:02:44;32.90;;;29.35;;
60292;SDS011;52402;52.670;6.750;2022-10-26T04:05:17;31.63;;;28.17;;
60292;SDS011;52402;52.670;6.750;2022-10-26T04:07:42;28.45;;;25.48;;
60292;SDS011;52402;52.670;6.750;2022-10-26T04:10:08;28.98;;;25.98;;
60292;SDS011;52402;52.670;6.750;2022-10-26T04:12:37;29.80;;;25.65;;
60292;SDS011;52402;52.670;6.750;2022-10-26T04:15:04;31.02;;;27.70;;
60292;SDS011;52402;52.670;6.750;2022-10-26T04:17:31;28.65;;;25.67;;
60292;SDS011;52402;52.670;6.750;2022-10-26T04:19:56;40.33;;;31.42;;
60292;SDS011;52402;52.670;6.750;2022-10-26T04:22:22;45.72;;;33.17;;
60292;SDS011;52402;52.670;6.750;2022-10-26T04:24:48;49.33;;;37.05;;
60292;SDS011;52402;52.670;6.750;2022-10-26T04:27:14;52.80;;;37.63;;
60292;SDS011;52402;52.670;6.750;2022-10-26T04:29:39;45.05;;;35.72;;
60292;SDS011;52402;52.670;6.750;2022-10-26T04:32:05;38.30;;;31.95;;
60292;SDS011;52402;52.670;6.750;2022-10-26T04:34:31;53.72;;;38.70;;
60292;SDS011;52402;52.670;6.750;2022-10-26T04:36:57;48.83;;;37.17;;
60292;SDS011;52402;52.670;6.750;2022-10-26T04:39:22;46.97;;;37.55;;
60292;SDS011;52402;52.670;6.750;2022-10-26T04:41:48;53.67;;;39.78;;
60292;SDS011;52402;52.670;6.750;2022-10-26T04:44:14;45.33;;;36.53;;
60292;SDS011;52402;52.670;6.750;2022-10-26T04:46:40;40.13;;;32.50;;
60292;SDS011;52402;52.670;6.750;2022-10-26T04:49:05;38.60;;;32.53;;
60292;SDS011;52402;52.670;6.750;2022-10-26T04:51:31;45.05;;;35.22;;
60292;SDS011;52402;52.670;6.750;2022-10-26T04:53:56;64.43;;;42.53;;
60292;SDS011;52402;52.670;6.750;2022-10-26T04:56:22;67.43;;;43.03;;
60292;SDS011;52402;52.670;6.750;2022-10-26T04:58:48;62.38;;;41.58;;
60292;SDS011;52402;52.670;6.750;2022-10-26T05:01:13;64.88;;;40.17;;
60292;SDS011;52402;52.670;6.750;2022-10-26T05:03:39;48.20;;;36.80;;
60292;SDS011;52402;52.670;6.750;2022-10-26T05:06:04;67.22;;;41.08;;
60292;SDS011;52402;52.670;6.750;2022-10-26T05:08:30;55.45;;;38.47;;
60292;SDS011;52402;52.670;6.750;2022-10-26T05:10:56;44.00;;;34.70;;
60292;SDS011;52402;52.670;6.750;2022-10-26T05:13:21;50.10;;;36.92;;
60292;SDS011;52402;52.670;6.750;2022-10-26T05:15:47;49.72;;;36.75;;
60292;SDS011;52402;52.670;6.750;2022-10-26T05:18:12;53.78;;;37.47;;
60292;SDS011;52402;52.670;6.750;2022-10-26T05:20:38;40.28;;;33.15;;
60292;SDS011;52402;52.670;6.750;2022-10-26T05:23:05;52.30;;;37.83;;
60292;SDS011;52402;52.670;6.750;2022-10-26T05:25:34;53.13;;;37.15;;
60292;SDS011;52402;52.670;6.750;2022-10-26T05:28:02;56.90;;;38.00;;
60292;SDS011;52402;52.670;6.750;2022-10-26T05:30:29;41.95;;;33.92;;
60292;SDS011;52402;52.670;6.750;2022-10-26T05:32:56;35.28;;;29.98;;
60292;SDS011;52402;52.670;6.750;2022-10-26T05:35:24;49.30;;;36.63;;
60292;SDS011;52402;52.670;6.750;2022-10-26T05:37:51;49.58;;;36.20;;
60292;SDS011;52402;52.670;6.750;2022-10-26T05:40:16;40.20;;;32.47;;
60292;SDS011;52402;52.670;6.750;2022-10-26T05:42:43;41.15;;;33.40;;
60292;SDS011;52402;52.670;6.750;2022-10-26T05:45:09;47.05;;;35.25;;
60292;SDS011;52402;52.670;6.750;2022-10-26T05:47:39;36.75;;;30.48;;
60292;SDS011;52402;52.670;6.750;2022-10-26T05:50:05;37.55;;;29.58;;
60292;SDS011;52402;52.670;6.750;2022-10-26T05:52:39;59.75;;;38.10;;
60292;SDS011;52402;52.670;6.750;2022-10-26T05:55:08;40.47;;;31.95;;
60292;SDS011;52402;52.670;6.750;2022-10-26T05:57:35;43.58;;;31.65;;
60292;SDS011;52402;52.670;6.750;2022-10-26T06:00:02;35.08;;;30.55;;
60292;SDS011;52402;52.670;6.750;2022-10-26T06:05:16;29.30;;;26.20;;
60292;SDS011;52402;52.670;6.750;2022-10-26T06:07:46;33.90;;;28.25;;
60292;SDS011;52402;52.670;6.750;2022-10-26T06:10:12;35.50;;;30.05;;
60292;SDS011;52402;52.670;6.750;2022-10-26T06:12:38;33.83;;;28.05;;
60292;SDS011;52402;52.670;6.750;2022-10-26T06:15:04;32.75;;;27.05;;
60292;SDS011;52402;52.670;6.750;2022-10-26T06:20:26;30.60;;;27.25;;
60292;SDS011;52402;52.670;6.750;2022-10-26T06:31:05;29.50;;;25.35;;
60292;SDS011;52402;52.670;6.750;2022-10-26T06:33:31;32.88;;;26.40;;
60292;SDS011;52402;52.670;6.750;2022-10-26T06:38:46;27.67;;;23.83;;
60292;SDS011;52402;52.670;6.750;2022-10-26T06:41:14;36.40;;;27.58;;
60292;SDS011;52402;52.670;6.750;2022-10-26T06:43:43;27.80;;;24.20;;
60292;SDS011;52402;52.670;6.750;2022-10-26T06:49:13;40.70;;;30.88;;
60292;SDS011;52402;52.670;6.750;2022-10-26T06:54:46;29.50;;;25.92;;
60292;SDS011;52402;52.670;6.750;2022-10-26T06:57:20;25.20;;;22.58;;
60292;SDS011;52402;52.670;6.750;2022-10-26T07:02:38;25.98;;;22.67;;
60292;SDS011;52402;52.670;6.750;2022-10-26T07:05:04;26.42;;;23.23;;
60292;SDS011;52402;52.670;6.750;2022-10-26T07:07:34;29.90;;;24.50;;
60292;SDS011;52402;52.670;6.750;2022-10-26T07:10:03;27.65;;;23.08;;
60292;SDS011;52402;52.670;6.750;2022-10-26T07:12:31;28.73;;;22.27;;
60292;SDS011;52402;52.670;6.750;2022-10-26T07:14:56;25.67;;;22.98;;
60292;SDS011;52402;52.670;6.750;2022-10-26T07:17:22;26.10;;;22.90;;
60292;SDS011;52402;52.670;6.750;2022-10-26T07:19:48;27.45;;;23.48;;
60292;SDS011;52402;52.670;6.750;2022-10-26T07:22:13;26.13;;;21.75;;
60292;SDS011;52402;52.670;6.750;2022-10-26T07:24:39;23.63;;;20.90;;
60292;SDS011;52402;52.670;6.750;2022-10-26T07:27:05;28.70;;;22.77;;
60292;SDS011;52402;52.670;6.750;2022-10-26T07:29:30;27.98;;;23.65;;
60292;SDS011;52402;52.670;6.750;2022-10-26T07:31:56;24.80;;;21.70;;
60292;SDS011;52402;52.670;6.750;2022-10-26T07:34:21;24.35;;;21.70;;
60292;SDS011;52402;52.670;6.750;2022-10-26T07:36:47;23.73;;;21.23;;
60292;SDS011;52402;52.670;6.750;2022-10-26T07:39:12;25.08;;;20.52;;
60292;SDS011;52402;52.670;6.750;2022-10-26T07:41:38;23.38;;;20.40;;
60292;SDS011;52402;52.670;6.750;2022-10-26T07:44:04;20.90;;;18.67;;
60292;SDS011;52402;52.670;6.750;2022-10-26T07:46:29;22.70;;;19.13;;
60292;SDS011;52402;52.670;6.750;2022-10-26T07:48:55;21.00;;;18.27;;
60292;SDS011;52402;52.670;6.750;2022-10-26T07:51:20;20.63;;;18.38;;
60292;SDS011;52402;52.670;6.750;2022-10-26T07:53:48;20.08;;;18.08;;
60292;SDS011;52402;52.670;6.750;2022-10-26T07:56:13;21.15;;;18.52;;
60292;SDS011;52402;52.670;6.750;2022-10-26T07:58:39;18.42;;;16.58;;
60292;SDS011;52402;52.670;6.750;2022-10-26T08:01:09;21.38;;;17.23;;
60292;SDS011;52402;52.670;6.750;2022-10-26T08:03:37;20.48;;;17.25;;
60292;SDS011;52402;52.670;6.750;2022-10-26T08:06:02;20.27;;;17.58;;
60292;SDS011;52402;52.670;6.750;2022-10-26T08:08:29;18.52;;;16.52;;
60292;SDS011;52402;52.670;6.750;2022-10-26T08:10:58;17.73;;;15.87;;
60292;SDS011;52402;52.670;6.750;2022-10-26T08:13:24;16.98;;;15.20;;
60292;SDS011;52402;52.670;6.750;2022-10-26T08:15:55;18.40;;;16.50;;
60292;SDS011;52402;52.670;6.750;2022-10-26T08:18:22;17.70;;;15.85;;
60292;SDS011;52402;52.670;6.750;2022-10-26T08:20:47;19.17;;;16.55;;
60292;SDS011;52402;52.670;6.750;2022-10-26T08:23:13;20.38;;;18.27;;
60292;SDS011;52402;52.670;6.750;2022-10-26T08:25:38;17.63;;;15.80;;
60292;SDS011;52402;52.670;6.750;2022-10-26T08:28:04;17.98;;;15.90;;
60292;SDS011;52402;52.670;6.750;2022-10-26T08:30:30;18.15;;;15.27;;
60292;SDS011;52402;52.670;6.750;2022-10-26T08:32:57;17.33;;;15.00;;
60292;SDS011;52402;52.670;6.750;2022-10-26T08:35:23;15.40;;;13.55;;
60292;SDS011;52402;52.670;6.750;2022-10-26T08:37:50;15.35;;;13.45;;
60292;SDS011;52402;52.670;6.750;2022-10-26T08:40:17;14.52;;;13.10;;
60292;SDS011;52402;52.670;6.750;2022-10-26T08:42:47;16.35;;;13.30;;
60292;SDS011;52402;52.670;6.750;2022-10-26T08:45:19;16.05;;;12.70;;
60292;SDS011;52402;52.670;6.750;2022-10-26T08:47:52;14.38;;;11.65;;
60292;SDS011;52402;52.670;6.750;2022-10-26T08:50:26;12.98;;;11.05;;
60292;SDS011;52402;52.670;6.750;2022-10-26T08:55:26;14.80;;;11.10;;
60292;SDS011;52402;52.670;6.750;2022-10-26T08:57:58;14.75;;;10.40;;
60292;SDS011;52402;52.670;6.750;2022-10-26T09:00:28;19.15;;;10.40;;
60292;SDS011;52402;52.670;6.750;2022-10-26T09:02:54;12.98;;;9.85;;
60292;SDS011;52402;52.670;6.750;2022-10-26T09:05:27;11.57;;;9.23;;
60292;SDS011;52402;52.670;6.750;2022-10-26T09:08:01;11.18;;;9.40;;
60292;SDS011;52402;52.670;6.750;2022-10-26T09:11:04;13.32;;;9.65;;
60292;SDS011;52402;52.670;6.750;2022-10-26T09:13:57;12.65;;;9.60;;
60292;SDS011;52402;52.670;6.750;2022-10-26T09:25:15;12.82;;;8.38;;
60292;SDS011;52402;52.670;6.750;2022-10-26T09:27:44;11.18;;;8.35;;
60292;SDS011;52402;52.670;6.750;2022-10-26T09:30:16;10.98;;;7.45;;
60292;SDS011;52402;52.670;6.750;2022-10-26T09:32:45;10.95;;;7.63;;
60292;SDS011;52402;52.670;6.750;2022-10-26T09:35:22;12.75;;;7.00;;
60292;SDS011;52402;52.670;6.750;2022-10-26T09:37:55;11.15;;;6.43;;
60292;SDS011;52402;52.670;6.750;2022-10-26T09:40:35;10.98;;;6.65;;
60292;SDS011;52402;52.670;6.750;2022-10-26T09:43:26;11.77;;;5.45;;
60292;SDS011;52402;52.670;6.750;2022-10-26T09:45:56;9.40;;;5.40;;
60292;SDS011;52402;52.670;6.750;2022-10-26T09:48:30;8.45;;;5.20;;
60292;SDS011;52402;52.670;6.750;2022-10-26T09:51:03;8.02;;;4.50;;
60292;SDS011;52402;52.670;6.750;2022-10-26T09:53:29;8.93;;;4.40;;
60292;SDS011;52402;52.670;6.750;2022-10-26T09:56:00;8.90;;;4.50;;
60292;SDS011;52402;52.670;6.750;2022-10-26T09:58:31;10.00;;;4.70;;
60292;SDS011;52402;52.670;6.750;2022-10-26T10:01:13;8.88;;;4.18;;
60292;SDS011;52402;52.670;6.750;2022-10-26T10:06:38;7.63;;;4.25;;
60292;SDS011;52402;52.670;6.750;2022-10-26T10:09:05;11.55;;;4.43;;
60292;SDS011;52402;52.670;6.750;2022-10-26T10:14:23;12.73;;;4.60;;
60292;SDS011;52402;52.670;6.750;2022-10-26T10:17:36;8.23;;;4.70;;
60292;SDS011;52402;52.670;6.750;2022-10-26T10:19:43;8.07;;;4.40;;
60292;SDS011;52402;52.670;6.750;2022-10-26T10:24:35;11.25;;;4.95;;
60292;SDS011;52402;52.670;6.750;2022-10-26T10:27:07;9.98;;;4.72;;
60292;SDS011;52402;52.670;6.750;2022-10-26T10:29:42;11.48;;;5.30;;
60292;SDS011;52402;52.670;6.750;2022-10-26T10:32:19;11.18;;;4.82;;
60292;SDS011;52402;52.670;6.750;2022-10-26T10:34:47;8.23;;;4.70;;
60292;SDS011;52402;52.670;6.750;2022-10-26T10:37:21;10.32;;;5.28;;
60292;SDS011;52402;52.670;6.750;2022-10-26T10:39:55;8.35;;;5.22;;
60292;SDS011;52402;52.670;6.750;2022-10-26T10:42:41;9.50;;;5.00;;
60292;SDS011;52402;52.670;6.750;2022-10-26T10:45:19;11.65;;;5.50;;
60292;SDS011;52402;52.670;6.750;2022-10-26T10:50:37;8.50;;;4.57;;
60292;SDS011;52402;52.670;6.750;2022-10-26T10:53:18;9.45;;;4.85;;
60292;SDS011;52402;52.670;6.750;2022-10-26T10:55:55;9.30;;;5.05;;
60292;SDS011;52402;52.670;6.750;2022-10-26T10:58:58;9.95;;;4.53;;
60292;SDS011;52402;52.670;6.750;2022-10-26T11:01:26;9.32;;;4.93;;
60292;SDS011;52402;52.670;6.750;2022-10-26T11:06:41;9.00;;;4.97;;
60292;SDS011;52402;52.670;6.750;2022-10-26T11:09:09;9.63;;;4.75;;
60292;SDS011;52402;52.670;6.750;2022-10-26T11:11:44;7.93;;;4.47;;
60292;SDS011;52402;52.670;6.750;2022-10-26T11:14:27;9.68;;;4.55;;
60292;SDS011;52402;52.670;6.750;2022-10-26T11:17:21;9.00;;;4.65;;
60292;SDS011;52402;52.670;6.750;2022-10-26T11:19:52;9.05;;;4.07;;
60292;SDS011;52402;52.670;6.750;2022-10-26T11:22:40;10.23;;;4.20;;
60292;SDS011;52402;52.670;6.750;2022-10-26T11:25:11;9.27;;;4.63;;
60292;SDS011;52402;52.670;6.750;2022-10-26T11:27:52;8.30;;;4.32;;
60292;SDS011;52402;52.670;6.750;2022-10-26T11:30:25;7.45;;;3.90;;
60292;SDS011;52402;52.670;6.750;2022-10-26T11:33:06;7.97;;;4.00;;
60292;SDS011;52402;52.670;6.750;2022-10-26T11:35:52;10.23;;;4.47;;
60292;SDS011;52402;52.670;6.750;2022-10-26T11:46:33;9.20;;;4.47;;
60292;SDS011;52402;52.670;6.750;2022-10-26T11:49:14;8.82;;;4.25;;
60292;SDS011;52402;52.670;6.750;2022-10-26T11:57:04;10.88;;;4.50;;
60292;SDS011;52402;52.670;6.750;2022-10-26T11:59:30;11.40;;;5.20;;
60292;SDS011;52402;52.670;6.750;2022-10-26T12:02:03;9.75;;;5.43;;
60292;SDS011;52402;52.670;6.750;2022-10-26T12:04:34;11.75;;;4.93;;
60292;SDS011;52402;52.670;6.750;2022-10-26T12:07:03;8.60;;;4.60;;
60292;SDS011;52402;52.670;6.750;2022-10-26T12:09:37;8.60;;;4.50;;
60292;SDS011;52402;52.670;6.750;2022-10-26T12:14:41;11.13;;;4.97;;
60292;SDS011;52402;52.670;6.750;2022-10-26T12:19:47;7.88;;;4.30;;
60292;SDS011;52402;52.670;6.750;2022-10-26T12:22:18;10.10;;;4.75;;
60292;SDS011;52402;52.670;6.750;2022-10-26T12:24:46;8.52;;;4.30;;
60292;SDS011;52402;52.670;6.750;2022-10-26T12:30:49;8.57;;;4.70;;
60292;SDS011;52402;52.670;6.750;2022-10-26T12:32:58;8.98;;;5.00;;
60292;SDS011;52402;52.670;6.750;2022-10-26T12:35:40;9.05;;;4.65;;
60292;SDS011;52402;52.670;6.750;2022-10-26T12:48:40;10.55;;;4.70;;
60292;SDS011;52402;52.670;6.750;2022-10-26T13:01:51;7.57;;;4.72;;
60292;SDS011;52402;52.670;6.750;2022-10-26T13:04:38;11.25;;;5.00;;
60292;SDS011;52402;52.670;6.750;2022-10-26T13:07:23;10.10;;;5.00;;
60292;SDS011;52402;52.670;6.750;2022-10-26T13:09:55;12.57;;;5.10;;
60292;SDS011;52402;52.670;6.750;2022-10-26T13:12:25;8.50;;;4.85;;
60292;SDS011;52402;52.670;6.750;2022-10-26T13:14:58;9.52;;;4.72;;
60292;SDS011;52402;52.670;6.750;2022-10-26T13:17:28;9.60;;;4.90;;
60292;SDS011;52402;52.670;6.750;2022-10-26T13:20:04;9.27;;;4.90;;
60292;SDS011;52402;52.670;6.750;2022-10-26T13:22:31;11.57;;;5.30;;
60292;SDS011;52402;52.670;6.750;2022-10-26T13:24:58;8.55;;;5.35;;
60292;SDS011;52402;52.670;6.750;2022-10-26T13:32:33;10.60;;;5.93;;
60292;SDS011;52402;52.670;6.750;2022-10-26T13:35:04;11.93;;;6.10;;
60292;SDS011;52402;52.670;6.750;2022-10-26T13:37:34;10.27;;;5.78;;
60292;SDS011;52402;52.670;6.750;2022-10-26T13:40:02;11.90;;;5.85;;
60292;SDS011;52402;52.670;6.750;2022-10-26T13:42:31;9.88;;;5.95;;
60292;SDS011;52402;52.670;6.750;2022-10-26T13:45:05;9.77;;;6.07;;
60292;SDS011;52402;52.670;6.750;2022-10-26T13:50:31;11.93;;;5.93;;
60292;SDS011;52402;52.670;6.750;2022-10-26T13:53:06;12.50;;;6.10;;
60292;SDS011;52402;52.670;6.750;2022-10-26T13:55:46;12.35;;;6.93;;
60292;SDS011;52402;52.670;6.750;2022-10-26T13:58:35;13.07;;;6.72;;
60292;SDS011;52402;52.670;6.750;2022-10-26T14:03:40;10.70;;;6.03;;
60292;SDS011;52402;52.670;6.750;2022-10-26T14:06:14;9.52;;;6.30;;
60292;SDS011;52402;52.670;6.750;2022-10-26T14:08:54;13.07;;;6.20;;
60292;SDS011;52402;52.670;6.750;2022-10-26T14:11:26;10.77;;;5.80;;
60292;SDS011;52402;52.670;6.750;2022-10-26T14:13:59;10.35;;;6.50;;
60292;SDS011;52402;52.670;6.750;2022-10-26T14:16:27;11.80;;;5.80;;
60292;SDS011;52402;52.670;6.750;2022-10-26T14:18:55;10.63;;;5.50;;
60292;SDS011;52402;52.670;6.750;2022-10-26T14:21:21;10.07;;;6.05;;
60292;SDS011;52402;52.670;6.750;2022-10-26T14:23:57;13.07;;;6.35;;
60292;SDS011;52402;52.670;6.750;2022-10-26T14:26:25;15.55;;;6.50;;
60292;SDS011;52402;52.670;6.750;2022-10-26T14:28:56;9.07;;;5.63;;
60292;SDS011;52402;52.670;6.750;2022-10-26T14:31:30;11.82;;;5.88;;
60292;SDS011;52402;52.670;6.750;2022-10-26T14:33:57;8.63;;;5.93;;
60292;SDS011;52402;52.670;6.750;2022-10-26T14:36:29;11.73;;;6.15;;
60292;SDS011;52402;52.670;6.750;2022-10-26T14:39:02;9.45;;;5.90;;
60292;SDS011;52402;52.670;6.750;2022-10-26T14:41:33;12.20;;;6.75;;
60292;SDS011;52402;52.670;6.750;2022-10-26T14:44:00;13.45;;;5.93;;
60292;SDS011;52402;52.670;6.750;2022-10-26T14:46:27;13.43;;;6.32;;
60292;SDS011;52402;52.670;6.750;2022-10-26T14:48:58;12.95;;;6.18;;
60292;SDS011;52402;52.670;6.750;2022-10-26T14:51:26;10.50;;;6.00;;
60292;SDS011;52402;52.670;6.750;2022-10-26T14:53:55;11.13;;;5.93;;
60292;SDS011;52402;52.670;6.750;2022-10-26T14:56:24;12.05;;;6.50;;
60292;SDS011;52402;52.670;6.750;2022-10-26T14:58:55;11.05;;;6.18;;
60292;SDS011;52402;52.670;6.750;2022-10-26T15:03:58;13.00;;;5.80;;
60292;SDS011;52402;52.670;6.750;2022-10-26T15:08:53;12.65;;;6.25;;
60292;SDS011;52402;52.670;6.750;2022-10-26T15:11:28;13.23;;;6.35;;
60292;SDS011;52402;52.670;6.750;2022-10-26T15:13:55;12.38;;;6.00;;
60292;SDS011;52402;52.670;6.750;2022-10-26T15:16:23;10.38;;;6.07;;
60292;SDS011;52402;52.670;6.750;2022-10-26T15:18:53;9.45;;;5.97;;
60292;SDS011;52402;52.670;6.750;2022-10-26T15:21:35;9.90;;;6.25;;
60292;SDS011;52402;52.670;6.750;2022-10-26T15:24:17;10.32;;;6.10;;
60292;SDS011;52402;52.670;6.750;2022-10-26T15:26:57;9.25;;;6.18;;
60292;SDS011;52402;52.670;6.750;2022-10-26T15:29:33;10.10;;;5.70;;
60292;SDS011;52402;52.670;6.750;2022-10-26T15:32:03;9.73;;;5.93;;
60292;SDS011;52402;52.670;6.750;2022-10-26T15:34:30;9.10;;;6.03;;
60292;SDS011;52402;52.670;6.750;2022-10-26T15:36:55;11.95;;;6.68;;
60292;SDS011;52402;52.670;6.750;2022-10-26T15:39:21;10.07;;;6.82;;
60292;SDS011;52402;52.670;6.750;2022-10-26T15:41:47;9.93;;;6.53;;
60292;SDS011;52402;52.670;6.750;2022-10-26T15:44:16;12.63;;;6.75;;
60292;SDS011;52402;52.670;6.750;2022-10-26T15:46:45;12.25;;;6.45;;
60292;SDS011;52402;52.670;6.750;2022-10-26T15:49:14;11.32;;;7.18;;
60292;SDS011;52402;52.670;6.750;2022-10-26T15:51:44;10.73;;;7.18;;
60292;SDS011;52402;52.670;6.750;2022-10-26T15:54:11;8.88;;;7.28;;
60292;SDS011;52402;52.670;6.750;2022-10-26T15:56:37;10.85;;;7.10;;
60292;SDS011;52402;52.670;6.750;2022-10-26T15:59:07;10.88;;;7.43;;
60292;SDS011;52402;52.670;6.750;2022-10-26T16:01:40;9.80;;;7.47;;
60292;SDS011;52402;52.670;6.750;2022-10-26T16:04:05;11.02;;;7.65;;
60292;SDS011;52402;52.670;6.750;2022-10-26T16:06:33;10.90;;;7.45;;
60292;SDS011;52402;52.670;6.750;2022-10-26T16:09:00;11.60;;;7.68;;
60292;SDS011;52402;52.670;6.750;2022-10-26T16:11:28;10.80;;;7.63;;
60292;SDS011;52402;52.670;6.750;2022-10-26T16:13:54;10.90;;;7.80;;
60292;SDS011;52402;52.670;6.750;2022-10-26T16:16:20;11.60;;;8.10;;
60292;SDS011;52402;52.670;6.750;2022-10-26T16:18:52;13.68;;;8.18;;
60292;SDS011;52402;52.670;6.750;2022-10-26T16:21:19;11.32;;;7.82;;
60292;SDS011;52402;52.670;6.750;2022-10-26T16:23:47;10.43;;;7.68;;
60292;SDS011;52402;52.670;6.750;2022-10-26T16:26:14;12.05;;;8.15;;
60292;SDS011;52402;52.670;6.750;2022-10-26T16:28:40;11.80;;;7.35;;
60292;SDS011;52402;52.670;6.750;2022-10-26T16:31:07;10.48;;;8.43;;
60292;SDS011;52402;52.670;6.750;2022-10-26T16:33:37;10.20;;;8.45;;
60292;SDS011;52402;52.670;6.750;2022-10-26T16:36:03;11.57;;;8.38;;
60292;SDS011;52402;52.670;6.750;2022-10-26T16:38:30;10.82;;;8.75;;
60292;SDS011;52402;52.670;6.750;2022-10-26T16:41:04;14.80;;;8.48;;
60292;SDS011;52402;52.670;6.750;2022-10-26T16:43:40;12.55;;;10.02;;
60292;SDS011;52402;52.670;6.750;2022-10-26T16:46:09;15.00;;;10.35;;
60292;SDS011;52402;52.670;6.750;2022-10-26T16:48:40;11.27;;;10.00;;
60292;SDS011;52402;52.670;6.750;2022-10-26T16:51:08;13.13;;;9.68;;
60292;SDS011;52402;52.670;6.750;2022-10-26T16:53:34;14.20;;;10.02;;
60292;SDS011;52402;52.670;6.750;2022-10-26T16:56:03;11.73;;;10.52;;